Fort Laramie, WY

9:25 PM MDT on July 31, 2014 (GMT -0600)
Cherry Creek (KWYVETER2) Elev 4249 ft | 41.99 °N, 104.40 °W | Change Station

Current weather conditions updated 4 minutes ago

Clear
Clear
67.3 °F
Feels Like 67.3 °F
N
2.0
Wind Variable Wind from SE
Gusts 2.0 mph

Tomorrow is forecast to be nearly the same temperature as today.

Today
High -- | Low -- °F
--% Chance of Precip.
Yesterday
High -- | Low -- °F
Precip. -- in
5:50 AM 8:18 PM
Waxing Crescent, 23% visible
Pressure 30.04 in
Visibility 10.0 miles
Clouds Clear
Dew Point 48 °F
Humidity 51%
Rainfall 0.00 in
Snow Depth Not available.
UV 0 out of 12
Pollen 7.10 out of 12
Air Quality Not available.
Flu Activity Not available.
METAR KTOR 010253Z AUTO 12007KT 10SM CLR 22/08 A3016 RMK AO2 SLP170 T02220078 53004

More Conditions Fewer Conditions

Pressure 30.04 in
Visibility 10.0 miles
Clouds Clear
Dew Point 48 °F
Humidity 51%
Rainfall 0.00 in
Snow Depth Not available.
UV 0 out of 12
Pollen 7.10 out of 12
Air Quality Not available.
Flu Activity Not available.
METAR KTOR 010253Z AUTO 12007KT 10SM CLR 22/08 A3016 RMK AO2 SLP170 T02220078 53004

More Conditions Fewer Conditions

10-Day Weather Forecast

Almanac

Astronomy

Jul. 31, 2014 Rise Set
Actual Time 5:50 AM MDT 8:18 PM MDT
Civil Twilight 5:18 AM MDT 8:49 PM MDT
Nautical Twilight 4:38 AM MDT 9:29 PM MDT
Astronomical Twilight 3:54 AM MDT 10:13 PM MDT
Moon 10:25 AM MDT (7/31) 10:25 PM MDT (7/31)
Length of Visible Light 15h 31m
Length of Day
14h 28m
Tomorrow will be 2m 9s shorter.
Waxing Crescent, 23% of the Moon is Illuminated
Today
Waxing Crescent
Aug 3
First Quarter
Aug 10
Full
Aug 17
Last Quarter
Aug 25
New

Today's Extremes

State Highs State Lows

Community

WunderPhotos

Upload Photos

1,739,503 photos uploaded!

Nearby

Snow Depth

Station Depth Elevation
Crow Creek 7 in 8330 ft
Casper Mountain 0 in 7850 ft
Cinnabar Park 0 in 9690 ft
Sandstone R.S. 10 in 8150 ft
Big Sandy Opening 1 in 9080 ft

Earthquake Activity

City Distance Mag. Time & Date
No recent earthquake activity has been reported nearby.
Minimum magnitude displayed is 2.5.

Coastal Water Temperatures

Place Temperature
No Stations Reporting

Nearby Weather Stations

Station Location Temp. Heat Index Dew Point Humidity Wind Precip. Elev Updated Type
HADS GUERNSEY DAM WEATHER STATION NEA WY, Guernsey, WY 71 °F - - - North  at  - 0.00 in / hr 4479 ft 8:30 PM MDT MADIS
Cherry Creek, Veteran, WY 67.3 °F - 48 °F 51% SE  at  2.0 mph 0.00 in / hr 4249 ft 9:20 PM MDT Normal
RAWS CASPER PORTABLE WY, Hartville, WY 76 °F 77 °F 43 °F 31% North  at  0 mph 0.00 in / hr 4785 ft 8:01 PM MDT MADIS
Torrington Main Street Market, Torrington, WY 70.1 °F 77 °F 49 °F 47% SE  at  0.0 mph 0.00 in / hr 4094 ft 9:25 PM MDT Normal
MesoWest TORRINGTON #1 , Torrington, WY 74 °F 77 °F 45 °F 35% SE  at  4 mph 0.00 in / hr 4279 ft 8:00 PM MDT MADIS
MesoWest YODER , Veteran, WY 78 °F 76 °F - - North  at  - 0.00 in / hr 4226 ft 8:00 PM MDT MADIS

Show More Stations Show Fewer Stations